Time;durP1;ratioP1;P1;durP2;ratioP2;P2;SDS_P1;SDS_P2;PMS_P1;PMS_P2;Temp;Humidity;BMP_temperature;BMP_pressure;BME280_temperature;BME280_humidity;BME280_pressure;Samples;Min_cycle;Max_cycle;Signal;HPM_P1;HPM_P2
2022/08/08 00:01:09;;;;;;;6.30;5.30;;;15.50;99.90;;;;;;5024243;28;20323;-55
2022/08/08 00:03:47;;;;;;;5.53;4.93;;;15.50;99.90;;;;;;5014362;28;20221;-54
2022/08/08 00:06:29;;;;;;;6.90;4.70;;;15.50;99.90;;;;;;5032352;28;20311;-55
2022/08/08 00:09:10;;;;;;;6.47;4.80;;;15.50;99.90;;;;;;5021211;28;20237;-54
2022/08/08 00:11:46;;;;;;;4.83;4.40;;;15.50;99.90;;;;;;5022967;28;20315;-54
2022/08/08 00:14:44;;;;;;;8.83;5.13;;;15.40;99.90;;;;;;5021090;28;20217;-55
2022/08/08 00:17:39;;;;;;;6.53;5.20;;;15.40;99.90;;;;;;5030842;28;20235;-54
2022/08/08 00:20:35;;;;;;;6.53;5.17;;;15.40;99.90;;;;;;5025374;28;20308;-55
2022/08/08 00:23:08;;;;;;;6.47;5.17;;;15.40;99.90;;;;;;5028778;28;20228;-55
2022/08/08 00:25:39;;;;;;;6.67;4.90;;;15.30;99.90;;;;;;5025634;28;20697;-55
2022/08/08 00:28:24;;;;;;;7.70;5.53;;;15.30;99.90;;;;;;5025978;28;20320;-55
2022/08/08 00:31:15;;;;;;;5.50;5.00;;;15.20;99.90;;;;;;5024175;28;20244;-55
2022/08/08 00:37:22;;;;;;;6.47;5.33;;;15.20;99.90;;;;;;5029949;28;20356;-55
2022/08/08 00:40:51;;;;;;;5.93;5.20;;;15.10;99.90;;;;;;5021936;28;20710;-54
2022/08/08 00:43:52;;;;;;;6.03;4.73;;;15.10;99.90;;;;;;5025929;28;20692;-55
2022/08/08 00:46:57;;;;;;;6.13;5.53;;;15.00;99.90;;;;;;5028664;28;20716;-53
2022/08/08 00:50:11;;;;;;;5.40;4.90;;;15.00;99.90;;;;;;5020865;28;20237;-54
2022/08/08 00:52:59;;;;;;;5.33;4.83;;;14.90;99.90;;;;;;5007301;28;20275;-55
2022/08/08 00:56:08;;;;;;;5.10;4.53;;;14.90;99.90;;;;;;5028337;28;20228;-54
2022/08/08 00:59:18;;;;;;;5.20;4.73;;;14.90;99.90;;;;;;5024435;28;20213;-55
2022/08/08 01:02:40;;;;;;;5.47;4.93;;;14.80;99.90;;;;;;5024313;28;20244;-54
2022/08/08 01:06:03;;;;;;;5.20;4.40;;;14.80;99.90;;;;;;5033875;28;20252;-56
2022/08/08 01:09:20;;;;;;;5.73;4.70;;;14.70;99.90;;;;;;5029700;28;20758;-55
2022/08/08 01:12:45;;;;;;;4.60;4.20;;;14.60;99.90;;;;;;4999433;28;20236;-54
2022/08/08 01:16:08;;;;;;;5.57;4.37;;;14.60;99.90;;;;;;5017316;28;20224;-54
2022/08/08 01:19:27;;;;;;;4.67;4.27;;;14.60;99.90;;;;;;5030967;28;20227;-58
2022/08/08 01:22:44;;;;;;;5.67;4.83;;;14.60;99.90;;;;;;4962785;28;20230;-61
2022/08/08 01:26:00;;;;;;;5.23;4.60;;;14.50;99.90;;;;;;5021283;28;20277;-59
2022/08/08 01:29:04;;;;;;;4.90;4.50;;;14.50;99.90;;;;;;5034426;28;20216;-55
2022/08/08 01:32:12;;;;;;;5.10;4.37;;;14.50;99.90;;;;;;5024039;28;20837;-57
2022/08/08 01:35:18;;;;;;;5.03;4.43;;;14.40;99.90;;;;;;5015103;28;20707;-54
2022/08/08 01:38:43;;;;;;;4.70;4.30;;;14.40;99.90;;;;;;5017599;28;20229;-55
2022/08/08 01:41:26;;;;;;;4.80;4.30;;;14.40;99.90;;;;;;4984735;28;20684;-55
2022/08/08 01:44:17;;;;;;;5.20;4.70;;;14.40;99.90;;;;;;5021084;28;20236;-55
2022/08/08 01:46:52;;;;;;;4.87;4.30;;;14.30;99.90;;;;;;5021719;28;20244;-54
2022/08/08 01:49:39;;;;;;;4.33;3.80;;;14.30;99.90;;;;;;5023783;28;20735;-53
2022/08/08 01:52:19;;;;;;;4.30;3.90;;;14.20;99.90;;;;;;5015310;28;20324;-55
2022/08/08 01:55:16;;;;;;;3.93;3.63;;;14.20;99.90;;;;;;5031190;28;20562;-54
2022/08/08 01:58:23;;;;;;;4.33;3.93;;;14.20;99.90;;;;;;5029258;28;20693;-55
2022/08/08 02:01:19;;;;;;;4.17;3.77;;;14.20;99.90;;;;;;5018918;28;20279;-55
2022/08/08 02:04:18;;;;;;;4.40;4.00;;;14.20;99.90;;;;;;5045528;28;20327;-54
2022/08/08 02:07:02;;;;;;;5.40;4.50;;;14.20;99.90;;;;;;5030609;28;20236;-54
2022/08/08 02:10:03;;;;;;;4.60;3.93;;;14.20;99.90;;;;;;5014899;28;20228;-54
2022/08/08 02:12:51;;;;;;;5.53;4.83;;;14.10;99.90;;;;;;5022979;28;20228;-54
2022/08/08 02:15:29;;;;;;;4.70;4.20;;;14.10;99.90;;;;;;5025194;28;20252;-55
2022/08/08 02:18:10;;;;;;;4.90;4.50;;;14.00;99.90;;;;;;5026061;28;20237;-54
2022/08/08 02:23:46;;;;;;;4.07;3.77;;;14.00;99.90;;;;;;5017395;28;20221;-54
2022/08/08 02:26:24;;;;;;;4.13;3.80;;;14.00;99.90;;;;;;5040394;28;20242;-55
2022/08/08 02:29:16;;;;;;;4.30;3.90;;;13.90;99.90;;;;;;5029619;28;20235;-55
2022/08/08 02:32:18;;;;;;;5.00;4.17;;;13.90;99.90;;;;;;5022563;28;20236;-55
2022/08/08 02:35:33;;;;;;;4.33;3.73;;;13.90;99.90;;;;;;5018540;28;20231;-54
2022/08/08 02:38:44;;;;;;;5.70;4.60;;;13.90;99.90;;;;;;5021069;28;20685;-54
2022/08/08 02:41:57;;;;;;;5.23;4.20;;;13.80;99.90;;;;;;5022619;28;20236;-55
2022/08/08 02:45:12;;;;;;;4.40;4.00;;;13.90;99.90;;;;;;5035430;28;20240;-55
2022/08/08 02:48:24;;;;;;;4.30;3.80;;;13.80;99.90;;;;;;5039949;28;20330;-55
2022/08/08 02:51:43;;;;;;;4.17;3.77;;;13.80;99.90;;;;;;5016387;28;20290;-55
2022/08/08 02:54:42;;;;;;;3.80;3.40;;;13.80;99.90;;;;;;5029915;28;20252;-55
2022/08/08 02:57:55;;;;;;;3.47;3.17;;;13.80;99.90;;;;;;5016791;28;20339;-54
2022/08/08 03:00:41;;;;;;;5.90;3.60;;;13.80;99.90;;;;;;5005616;28;20220;-54
2022/08/08 03:03:58;;;;;;;4.33;3.97;;;13.80;99.90;;;;;;5022261;28;20232;-55
2022/08/08 03:07:27;;;;;;;4.80;4.27;;;13.80;99.90;;;;;;5047044;28;20237;-54
2022/08/08 03:10:48;;;;;;;4.47;4.07;;;13.80;99.90;;;;;;5014140;28;20255;-54
2022/08/08 03:13:59;;;;;;;5.30;4.30;;;13.80;99.90;;;;;;5017793;28;20235;-55
2022/08/08 03:16:52;;;;;;;4.97;4.47;;;13.80;99.90;;;;;;5015764;28;20588;-55
2022/08/08 03:19:49;;;;;;;5.20;4.80;;;13.80;99.90;;;;;;5020614;28;20217;-55
2022/08/08 03:22:20;;;;;;;4.60;4.20;;;13.80;99.90;;;;;;5031169;28;20236;-54
2022/08/08 03:25:10;;;;;;;4.90;4.37;;;13.70;99.90;;;;;;5016837;28;20299;-54
2022/08/08 03:27:53;;;;;;;5.13;3.80;;;13.70;99.90;;;;;;5031563;28;20232;-54
2022/08/08 03:30:26;;;;;;;4.43;4.07;;;13.70;99.90;;;;;;5021350;28;20236;-54
2022/08/08 03:36:03;;;;;;;5.10;4.20;;;13.60;99.90;;;;;;5014598;28;20613;-55
2022/08/08 03:38:37;;;;;;;4.87;4.47;;;13.60;99.90;;;;;;5020313;28;20236;-55
2022/08/08 03:41:33;;;;;;;4.93;3.87;;;13.60;99.90;;;;;;5043366;28;20232;-54
2022/08/08 03:44:22;;;;;;;4.57;4.03;;;13.60;99.90;;;;;;5024989;28;20247;-54
2022/08/08 03:46:53;;;;;;;4.53;4.13;;;13.50;99.90;;;;;;5014057;28;20283;-54
2022/08/08 03:49:26;;;;;;;5.80;5.07;;;13.50;99.90;;;;;;5022243;28;20233;-54
2022/08/08 03:52:15;;;;;;;5.43;4.93;;;13.50;99.90;;;;;;5029975;28;20236;-54
2022/08/08 03:54:45;;;;;;;4.63;4.23;;;13.60;99.90;;;;;;5047627;28;20228;-54
2022/08/08 03:57:35;;;;;;;5.90;5.07;;;13.70;99.90;;;;;;5032924;28;20220;-54
2022/08/08 04:00:28;;;;;;;4.80;4.40;;;13.70;99.90;;;;;;5022602;28;20251;-54
2022/08/08 04:03:06;;;;;;;7.53;5.30;;;13.70;99.90;;;;;;5030769;28;20233;-55
2022/08/08 04:05:39;;;;;;;5.60;5.10;;;13.70;99.90;;;;;;5016955;28;20318;-55
2022/08/08 04:08:21;;;;;;;5.63;5.03;;;13.70;99.90;;;;;;5031287;28;20710;-55
2022/08/08 04:11:05;;;;;;;5.77;5.23;;;13.80;99.90;;;;;;5017946;28;20233;-55
2022/08/08 04:13:46;;;;;;;5.13;4.63;;;13.80;99.90;;;;;;5045513;28;20242;-55
2022/08/08 04:16:37;;;;;;;5.43;4.93;;;13.80;99.90;;;;;;5012857;28;20224;-55
2022/08/08 04:19:11;;;;;;;5.27;4.60;;;13.80;99.90;;;;;;5029275;28;20225;-54
2022/08/08 04:21:55;;;;;;;5.40;4.90;;;13.80;99.90;;;;;;5049483;28;20239;-54
2022/08/08 04:24:26;;;;;;;5.77;5.17;;;13.80;99.90;;;;;;5032291;28;20227;-53
2022/08/08 04:27:00;;;;;;;5.57;5.07;;;13.90;99.90;;;;;;5031297;28;20236;-54
2022/08/08 04:29:31;;;;;;;5.40;4.50;;;13.90;99.90;;;;;;5012506;28;20326;-55
2022/08/08 04:32:07;;;;;;;5.83;5.20;;;13.90;99.90;;;;;;5012835;28;20240;-55
2022/08/08 04:34:37;;;;;;;6.10;5.50;;;13.90;99.90;;;;;;5024887;28;20221;-55
2022/08/08 04:37:25;;;;;;;6.23;5.23;;;14.00;99.90;;;;;;5024394;28;20227;-54
2022/08/08 04:40:03;;;;;;;7.27;5.43;;;14.00;99.90;;;;;;5032152;28;20224;-54
2022/08/08 04:42:44;;;;;;;5.83;4.90;;;14.00;99.90;;;;;;5031953;28;20603;-55
2022/08/08 04:45:28;;;;;;;5.50;5.00;;;14.00;99.90;;;;;;5031922;28;20282;-54
2022/08/08 04:48:00;;;;;;;5.30;4.80;;;14.00;99.90;;;;;;5028553;28;20576;-55
2022/08/08 04:50:32;;;;;;;5.37;4.67;;;14.00;99.90;;;;;;5011813;28;20227;-55
2022/08/08 04:53:12;;;;;;;6.37;5.00;;;14.10;99.90;;;;;;5020214;28;20285;-55
2022/08/08 04:56:01;;;;;;;5.70;5.10;;;14.10;99.90;;;;;;5030877;28;20228;-54
2022/08/08 04:58:33;;;;;;;5.67;5.03;;;14.20;99.90;;;;;;5024187;28;20236;-55
2022/08/08 05:01:04;;;;;;;6.53;4.60;;;14.20;99.90;;;;;;5011907;28;20327;-54
2022/08/08 05:03:40;;;;;;;5.47;4.63;;;14.30;99.90;;;;;;5023412;28;20234;-54
2022/08/08 05:06:32;;;;;;;5.67;5.17;;;14.30;99.90;;;;;;5026929;28;20315;-55
2022/08/08 05:09:04;;;;;;;6.53;4.90;;;14.40;99.90;;;;;;5030529;28;20306;-55
2022/08/08 05:11:36;;;;;;;5.53;5.00;;;14.50;99.90;;;;;;5033031;28;20677;-55
2022/08/08 05:14:10;;;;;;;6.30;5.23;;;14.50;99.90;;;;;;5023422;28;20612;-54
2022/08/08 05:16:46;;;;;;;8.33;6.73;;;14.70;99.90;;;;;;5024215;28;20315;-55
2022/08/08 05:19:29;;;;;;;7.70;6.90;;;14.70;99.90;;;;;;5028251;28;20240;-55
2022/08/08 05:22:19;;;;;;;6.43;5.83;;;14.90;99.90;;;;;;5012468;28;20286;-55
2022/08/08 05:24:50;;;;;;;7.77;6.10;;;14.90;99.90;;;;;;5025039;28;20224;-55
2022/08/08 05:27:21;;;;;;;8.53;6.20;;;15.00;99.90;;;;;;5021990;28;20315;-55
2022/08/08 05:29:52;;;;;;;7.00;6.40;;;15.20;99.90;;;;;;5023692;28;20221;-55
2022/08/08 05:32:26;;;;;;;6.67;5.67;;;15.20;99.90;;;;;;5010985;28;20244;-54
2022/08/08 05:35:03;;;;;;;7.77;5.70;;;15.30;99.90;;;;;;5019414;28;20228;-55
2022/08/08 05:37:40;;;;;;;6.23;5.63;;;15.30;99.90;;;;;;5018938;28;20716;-55
2022/08/08 05:40:28;;;;;;;6.27;5.60;;;15.30;99.90;;;;;;5031199;28;20247;-55
2022/08/08 05:43:04;;;;;;;6.67;5.80;;;15.50;99.90;;;;;;5030381;28;20234;-55
2022/08/08 05:45:56;;;;;;;8.30;6.13;;;15.60;99.90;;;;;;5026794;28;20220;-55
2022/08/08 05:48:37;;;;;;;6.70;6.03;;;15.80;99.90;;;;;;5027087;28;20718;-55
2022/08/08 05:51:09;;;;;;;8.47;7.60;;;15.90;99.90;;;;;;5013097;28;20283;-55
2022/08/08 05:53:44;;;;;;;6.73;6.03;;;16.20;99.90;;;;;;5027918;28;20600;-55
2022/08/08 05:56:37;;;;;;;7.97;6.00;;;16.30;99.90;;;;;;5024480;28;20221;-54
2022/08/08 05:59:18;;;;;;;8.20;6.07;;;16.50;99.90;;;;;;5025669;28;20227;-55
2022/08/08 06:03:09;;;;;;;6.30;5.70;;;16.80;99.90;;;;;;5030025;28;20645;-54
2022/08/08 06:05:14;;;;;;;6.27;5.67;;;17.00;99.90;;;;;;5031404;28;20220;-55
2022/08/08 06:08:02;;;;;;;8.60;6.20;;;17.30;99.90;;;;;;5045662;28;20232;-55
2022/08/08 06:10:41;;;;;;;5.83;5.17;;;17.50;99.90;;;;;;5031608;28;20221;-55
2022/08/08 06:13:11;;;;;;;7.27;6.47;;;17.70;99.90;;;;;;5031843;28;20221;-55
2022/08/08 06:15:47;;;;;;;6.33;5.47;;;17.90;99.90;;;;;;5033526;28;20224;-55
2022/08/08 06:18:28;;;;;;;9.47;5.73;;;18.10;99.90;;;;;;5043460;28;20315;-55
2022/08/08 06:21:00;;;;;;;6.17;5.07;;;18.40;99.90;;;;;;5042553;28;20226;-55
2022/08/08 06:23:40;;;;;;;7.87;5.43;;;18.60;99.90;;;;;;5030300;28;20218;-55
2022/08/08 06:26:35;;;;;;;8.23;6.00;;;18.70;99.90;;;;;;5032901;28;20693;-55
2022/08/08 06:29:28;;;;;;;6.10;5.13;;;18.90;99.90;;;;;;5021013;28;20236;-55
2022/08/08 06:32:19;;;;;;;5.33;3.80;;;19.20;99.90;;;;;;5032141;28;20232;-55
2022/08/08 06:34:53;;;;;;;8.80;5.50;;;19.50;99.90;;;;;;5033595;28;20238;-56
2022/08/08 06:37:51;;;;;;;8.63;5.50;;;19.80;99.90;;;;;;5021400;28;20284;-55
2022/08/08 06:40:30;;;;;;;7.17;4.43;;;20.10;99.90;;;;;;5020653;28;20311;-54
2022/08/08 06:43:06;;;;;;;6.07;4.20;;;20.40;99.90;;;;;;5025057;28;20228;-55
2022/08/08 06:45:50;;;;;;;4.80;3.67;;;20.80;99.90;;;;;;5026040;28;20232;-55
2022/08/08 06:48:20;;;;;;;7.73;4.27;;;20.90;99.90;;;;;;5021532;28;20217;-55
2022/08/08 06:50:54;;;;;;;6.30;3.90;;;20.90;99.90;;;;;;5021805;28;20319;-55
2022/08/08 06:53:26;;;;;;;4.17;3.70;;;20.90;99.90;;;;;;5034260;28;20219;-55
2022/08/08 06:56:09;;;;;;;4.20;3.43;;;20.80;99.90;;;;;;5019656;28;20766;-55
2022/08/08 06:58:38;;;;;;;6.57;3.37;;;20.60;99.90;;;;;;5031142;28;20232;-55
2022/08/08 07:01:12;;;;;;;4.07;3.67;;;20.70;99.90;;;;;;5032493;28;20750;-55
2022/08/08 07:04:09;;;;;;;5.77;4.33;;;21.00;99.90;;;;;;5033895;28;20683;-55
2022/08/08 07:07:01;;;;;;;5.90;4.30;;;21.30;99.90;;;;;;5024607;28;20246;-55
2022/08/08 07:09:49;;;;;;;4.93;3.00;;;21.50;99.90;;;;;;5029928;28;20228;-55
2022/08/08 07:12:41;;;;;;;5.03;2.97;;;21.90;99.90;;;;;;5033861;28;20256;-55
2022/08/08 07:15:15;;;;;;;4.23;2.77;;;22.10;99.90;;;;;;5024758;28;20246;-55
2022/08/08 07:18:06;;;;;;;3.00;1.90;;;22.40;99.90;;;;;;5024276;28;20323;-55
2022/08/08 07:21:01;;;;;;;5.20;2.50;;;22.70;99.90;;;;;;5019663;28;20219;-54
2022/08/08 07:23:41;;;;;;;5.17;2.10;;;22.60;99.90;;;;;;5033664;28;20234;-55
2022/08/08 07:26:36;;;;;;;9.93;2.33;;;22.80;99.90;;;;;;5021772;28;20248;-55
2022/08/08 07:29:06;;;;;;;3.43;1.50;;;23.00;99.90;;;;;;5025454;28;20267;-55
2022/08/08 07:31:48;;;;;;;4.00;1.70;;;23.10;99.90;;;;;;5025087;28;20235;-55
2022/08/08 07:34:18;;;;;;;4.70;1.83;;;23.40;99.90;;;;;;5020956;28;20632;-55
2022/08/08 07:36:57;;;;;;;6.23;2.40;;;23.60;99.90;;;;;;5025898;28;20311;-54
2022/08/08 07:39:27;;;;;;;6.00;2.10;;;23.90;99.90;;;;;;5020496;28;20243;-55
2022/08/08 07:42:06;;;;;;;3.27;1.73;;;23.90;99.90;;;;;;5032593;28;20743;-55
2022/08/08 07:44:42;;;;;;;3.80;1.77;;;24.20;99.90;;;;;;5024179;28;20228;-54
2022/08/08 07:47:12;;;;;;;5.70;2.20;;;24.60;99.90;;;;;;5029259;28;20238;-55
2022/08/08 07:49:43;;;;;;;4.30;2.23;;;24.30;99.90;;;;;;5041573;28;20223;-55
2022/08/08 07:52:17;;;;;;;3.90;1.60;;;24.40;99.90;;;;;;5033049;28;20737;-55
2022/08/08 07:55:02;;;;;;;3.20;1.70;;;24.70;99.90;;;;;;5026175;28;20614;-54
2022/08/08 07:57:44;;;;;;;3.13;1.50;;;24.70;99.90;;;;;;5020559;28;20271;-55
2022/08/08 08:00:18;;;;;;;4.10;1.63;;;24.70;99.90;;;;;;5012957;28;20272;-55
2022/08/08 08:03:05;;;;;;;3.47;1.37;;;24.60;99.90;;;;;;5013410;28;20233;-55
2022/08/08 08:05:43;;;;;;;3.70;1.27;;;24.60;99.90;;;;;;5027683;28;20703;-55
2022/08/08 08:08:26;;;;;;;3.97;1.53;;;24.60;99.90;;;;;;5025944;28;20229;-54
2022/08/08 08:10:57;;;;;;;3.30;1.20;;;24.70;99.90;;;;;;5023475;28;20290;-55
2022/08/08 08:13:34;;;;;;;4.47;1.57;;;24.90;99.90;;;;;;5025307;28;20339;-54
2022/08/08 08:16:24;;;;;;;3.37;1.43;;;25.10;99.90;;;;;;5035322;28;20224;-54
2022/08/08 08:18:58;;;;;;;3.77;1.27;;;25.30;99.90;;;;;;5029357;28;20235;-55
2022/08/08 08:21:37;;;;;;;3.57;1.70;;;25.40;99.90;;;;;;5018136;28;20254;-55
2022/08/08 08:24:46;;;;;;;2.33;1.50;;;26.00;99.90;;;;;;5029255;28;20231;-55
2022/08/08 08:27:20;;;;;;;3.83;1.57;;;26.20;99.90;;;;;;5028203;28;20235;-54
2022/08/08 08:29:54;;;;;;;3.87;1.37;;;26.40;99.90;;;;;;5020976;28;20788;-55
2022/08/08 08:32:26;;;;;;;4.07;1.50;;;26.50;99.90;;;;;;5024404;28;20227;-54
2022/08/08 08:35:09;;;;;;;4.13;1.30;;;26.00;99.90;;;;;;5032378;28;20313;-55
2022/08/08 08:37:43;;;;;;;4.50;1.50;;;25.70;99.90;;;;;;5030296;28;20614;-55
2022/08/08 08:40:32;;;;;;;3.37;1.50;;;25.40;99.90;;;;;;5020018;28;20220;-55
2022/08/08 08:43:02;;;;;;;3.70;1.40;;;25.20;99.90;;;;;;5039565;28;20228;-55
2022/08/08 08:45:37;;;;;;;2.63;1.20;;;25.00;99.90;;;;;;5018151;28;20223;-55
2022/08/08 08:48:06;;;;;;;4.10;1.47;;;25.20;99.90;;;;;;5021602;28;20278;-55
2022/08/08 08:50:38;;;;;;;3.83;1.53;;;25.00;99.90;;;;;;5032323;28;20284;-55
2022/08/08 08:53:12;;;;;;;5.77;2.10;;;24.80;99.90;;;;;;5032103;28;20237;-55
2022/08/08 08:56:11;;;;;;;4.47;1.67;;;24.70;99.90;;;;;;5023367;28;20249;-55
2022/08/08 08:58:43;;;;;;;2.73;1.40;;;24.60;99.90;;;;;;5037678;28;20252;-55
2022/08/08 09:01:26;;;;;;;3.67;1.47;;;24.50;99.90;;;;;;5044647;28;20239;-55
2022/08/08 09:04:00;;;;;;;4.13;1.73;;;24.50;99.90;;;;;;5031139;28;20217;-57
2022/08/08 09:06:37;;;;;;;4.57;1.30;;;24.60;99.90;;;;;;5031576;28;20230;-58
2022/08/08 09:09:22;;;;;;;2.70;1.40;;;24.70;99.90;;;;;;5021353;28;20236;-59
2022/08/08 09:12:11;;;;;;;6.40;1.70;;;24.70;99.90;;;;;;5031758;28;20224;-57
2022/08/08 09:14:42;;;;;;;4.57;1.40;;;24.70;99.90;;;;;;5023477;28;20313;-60
2022/08/08 09:17:17;;;;;;;4.73;1.67;;;24.90;99.90;;;;;;5030232;28;20263;-57
2022/08/08 09:19:55;;;;;;;5.23;1.73;;;25.00;99.90;;;;;;5030172;28;20309;-56
2022/08/08 09:22:45;;;;;;;6.57;1.80;;;24.90;99.90;;;;;;5047461;28;20214;-59
2022/08/08 09:25:15;;;;;;;4.57;1.70;;;24.80;99.90;;;;;;5024332;28;20238;-59
2022/08/08 09:27:44;;;;;;;4.03;1.40;;;24.80;99.90;;;;;;5028812;28;20226;-59
2022/08/08 09:30:28;;;;;;;4.47;1.63;;;25.00;99.90;;;;;;5043496;28;20698;-59
2022/08/08 09:32:58;;;;;;;4.00;1.50;;;24.90;99.90;;;;;;5031081;28;20258;-59
2022/08/08 09:35:50;;;;;;;7.17;2.10;;;25.10;99.90;;;;;;5028187;28;20321;-58
2022/08/08 09:38:34;;;;;;;7.00;1.80;;;25.00;99.90;;;;;;5026600;28;20328;-59
2022/08/08 09:41:33;;;;;;;4.13;1.63;;;24.80;99.90;;;;;;5017117;28;20231;-62
2022/08/08 09:44:39;;;;;;;5.18;1.70;;;24.90;99.90;;;;;;5024929;28;20448;-58
2022/08/08 09:47:08;;;;;;;4.23;1.70;;;24.80;99.90;;;;;;5030349;28;20242;-57
2022/08/08 09:49:58;;;;;;;2.80;1.30;;;24.80;99.90;;;;;;5020926;28;20570;-56
2022/08/08 09:52:34;;;;;;;7.35;2.85;;;24.40;99.90;;;;;;5023268;28;20469;-57
2022/08/08 09:55:22;;;;;;;14.13;4.40;;;24.60;99.90;;;;;;5026064;28;20233;-57
2022/08/08 09:58:15;;;;;;;8.83;2.63;;;25.20;99.90;;;;;;5027154;28;20227;-57
2022/08/08 10:01:07;;;;;;;47.43;4.07;;;25.70;99.90;;;;;;5018363;28;20776;-56
2022/08/08 10:03:46;;;;;;;19.30;2.60;;;26.10;99.90;;;;;;5032327;28;20226;-56
2022/08/08 10:06:24;;;;;;;11.73;1.97;;;26.60;99.90;;;;;;5032024;28;20688;-57
2022/08/08 10:08:57;;;;;;;7.93;1.80;;;26.80;99.90;;;;;;5018831;28;20702;-56
2022/08/08 10:11:27;;;;;;;5.80;1.80;;;27.00;99.90;;;;;;5027582;28;20437;-57
2022/08/08 10:14:15;;;;;;;9.57;2.00;;;27.20;99.90;;;;;;5031607;28;20997;-59
2022/08/08 10:17:04;;;;;;;15.43;2.20;;;27.80;99.90;;;;;;5028093;28;20243;-54
2022/08/08 10:19:57;;;;;;;9.77;2.00;;;27.50;99.90;;;;;;5031725;28;20277;-59
2022/08/08 10:22:29;;;;;;;13.50;2.00;;;27.00;99.90;;;;;;5031983;28;20707;-58
2022/08/08 10:25:03;;;;;;;8.80;1.77;;;26.70;99.90;;;;;;5031279;28;20231;-58
2022/08/08 10:27:41;;;;;;;5.93;1.73;;;26.90;99.90;;;;;;5029132;28;20441;-60
2022/08/08 10:30:11;;;;;;;5.80;1.70;;;26.70;99.90;;;;;;5030170;28;20990;-58
2022/08/08 10:33:00;;;;;;;3.67;1.60;;;26.50;99.90;;;;;;5029707;28;20693;-63
2022/08/08 10:35:31;;;;;;;7.00;1.70;;;25.90;99.90;;;;;;5031392;28;20714;-59
2022/08/08 10:38:21;;;;;;;3.10;1.20;;;25.70;99.90;;;;;;5021691;28;20684;-60
2022/08/08 10:40:52;;;;;;;2.87;1.20;;;26.90;99.90;;;;;;5031052;28;20259;-59
2022/08/08 10:43:22;;;;;;;5.47;1.60;;;27.90;99.90;;;;;;5031227;28;20228;-60
2022/08/08 10:45:50;;;;;;;3.90;1.23;;;28.70;99.90;;;;;;5031042;28;20253;-59
2022/08/08 10:48:32;;;;;;;7.03;1.10;;;29.10;99.90;;;;;;5025193;28;20251;-61
2022/08/08 10:51:20;;;;;;;7.37;1.33;;;29.70;99.90;;;;;;5022563;28;20228;-57
2022/08/08 10:53:54;;;;;;;3.43;1.20;;;30.30;99.90;;;;;;5028034;28;20726;-58
2022/08/08 10:56:32;;;;;;;2.33;1.00;;;31.00;99.90;;;;;;5029863;28;20316;-58
2022/08/08 10:59:06;;;;;;;5.83;1.13;;;31.30;97.30;;;;;;5023996;28;20592;-57
2022/08/08 11:01:37;;;;;;;4.10;1.10;;;31.20;99.40;;;;;;5015238;28;20229;-56
2022/08/08 11:04:09;;;;;;;1.73;0.90;;;31.30;97.70;;;;;;5015996;28;20725;-56
2022/08/08 11:06:39;;;;;;;3.37;1.07;;;31.60;97.10;;;;;;5031151;28;20226;-53
2022/08/08 11:09:17;;;;;;;3.50;1.00;;;32.00;96.20;;;;;;5028846;28;20222;-56
2022/08/08 11:11:52;;;;;;;3.10;1.07;;;31.50;93.40;;;;;;5022936;28;20304;-57
2022/08/08 11:14:49;;;;;;;3.27;1.00;;;30.90;96.80;;;;;;5034347;28;20222;-56
2022/08/08 11:17:22;;;;;;;2.17;1.27;;;30.10;97.90;;;;;;5031909;28;20268;-63
2022/08/08 11:20:13;;;;;;;2.77;1.07;;;30.00;97.20;;;;;;5027426;28;20303;-60
2022/08/08 11:22:50;;;;;;;2.07;0.97;;;29.90;96.80;;;;;;5019519;28;20577;-58
2022/08/08 11:25:24;;;;;;;3.40;1.10;;;28.60;97.10;;;;;;5027115;28;20548;-61
2022/08/08 11:28:14;;;;;;;1.80;1.00;;;28.50;98.50;;;;;;5031539;28;20221;-58
2022/08/08 11:30:46;;;;;;;1.77;0.80;;;29.50;95.90;;;;;;5024033;28;20708;-61
2022/08/08 11:33:22;;;;;;;3.63;0.97;;;29.30;96.30;;;;;;5034454;28;20277;-56
2022/08/08 11:36:10;;;;;;;2.80;0.93;;;29.00;97.80;;;;;;5034553;28;20740;-57
2022/08/08 11:38:41;;;;;;;2.17;0.97;;;29.00;97.60;;;;;;5023427;28;20233;-56
2022/08/08 11:41:24;;;;;;;3.23;1.00;;;29.30;97.90;;;;;;5026748;28;20229;-62
2022/08/08 11:44:01;;;;;;;3.07;1.10;;;29.90;96.60;;;;;;5015560;28;20279;-61
2022/08/08 11:46:33;;;;;;;2.40;0.80;;;30.30;96.30;;;;;;5015669;28;20728;-61
2022/08/08 11:49:03;;;;;;;2.70;0.80;;;30.30;96.00;;;;;;5032918;28;20228;-61
2022/08/08 11:51:34;;;;;;;2.03;1.00;;;29.80;96.70;;;;;;5026169;28;20747;-61
2022/08/08 11:54:16;;;;;;;2.80;1.10;;;29.40;97.40;;;;;;5033785;28;20278;-61
2022/08/08 11:57:13;;;;;;;2.53;1.23;;;29.00;97.00;;;;;;5033003;28;20235;-61
2022/08/08 11:59:46;;;;;;;3.67;1.20;;;28.90;98.20;;;;;;5032912;28;20275;-62
2022/08/08 12:02:48;;;;;;;2.33;0.90;;;28.90;97.20;;;;;;5029179;28;20240;-61
2022/08/08 12:05:19;;;;;;;2.10;1.00;;;28.90;98.50;;;;;;5034200;28;20634;-61
2022/08/08 12:07:53;;;;;;;2.63;1.00;;;28.90;99.00;;;;;;5032433;28;20213;-61
2022/08/08 12:10:25;;;;;;;2.37;1.00;;;28.60;98.40;;;;;;5028057;28;20212;-61
2022/08/08 12:13:02;;;;;;;2.30;1.00;;;28.30;98.50;;;;;;5030307;28;20286;-62
2022/08/08 12:15:34;;;;;;;3.57;0.90;;;28.30;98.90;;;;;;5034277;28;20232;-62
2022/08/08 12:18:15;;;;;;;3.23;1.10;;;28.30;99.10;;;;;;5031564;28;20231;-62
2022/08/08 12:20:49;;;;;;;2.53;1.10;;;28.10;99.00;;;;;;5025322;28;20307;-62
2022/08/08 12:23:30;;;;;;;3.07;1.00;;;28.00;99.50;;;;;;5023065;28;20347;-62
2022/08/08 12:26:23;;;;;;;1.70;0.80;;;28.10;99.50;;;;;;5027099;28;20227;-62
2022/08/08 12:29:23;;;;;;;3.27;0.97;;;28.20;99.30;;;;;;5028683;28;20573;-62
2022/08/08 12:32:06;;;;;;;3.03;1.10;;;28.40;99.70;;;;;;5020214;28;20291;-62
2022/08/08 12:34:42;;;;;;;4.73;1.40;;;28.70;99.90;;;;;;5033613;28;20310;-63
2022/08/08 12:37:19;;;;;;;3.33;1.10;;;28.70;99.50;;;;;;5030795;28;20307;-62
2022/08/08 12:39:47;;;;;;;3.47;1.20;;;28.30;99.80;;;;;;5024561;28;20231;-63
2022/08/08 12:42:29;;;;;;;3.80;1.10;;;28.20;99.90;;;;;;5016752;28;20251;-62
2022/08/08 12:45:04;;;;;;;2.93;1.23;;;28.10;99.90;;;;;;5014102;28;20233;-62
2022/08/08 12:47:59;;;;;;;3.77;1.20;;;27.90;99.90;;;;;;5016066;28;20232;-63
2022/08/08 12:50:48;;;;;;;2.90;1.10;;;27.70;99.90;;;;;;5024112;28;20688;-63
2022/08/08 12:53:20;;;;;;;2.87;1.30;;;27.70;99.90;;;;;;5024771;28;20228;-63
2022/08/08 12:55:57;;;;;;;3.73;1.10;;;27.30;99.90;;;;;;5030972;28;20230;-63
2022/08/08 12:58:47;;;;;;;1.70;1.00;;;27.40;99.90;;;;;;5025231;28;20551;-63
2022/08/08 13:01:17;;;;;;;2.17;0.90;;;27.50;99.90;;;;;;5013316;28;20647;-63
2022/08/08 13:04:13;;;;;;;1.67;1.10;;;27.50;99.90;;;;;;5027312;28;20232;-63
2022/08/08 13:06:57;;;;;;;1.70;1.00;;;27.30;99.90;;;;;;5033473;28;20337;-63
2022/08/08 13:09:37;;;;;;;4.60;1.10;;;27.30;99.90;;;;;;5026112;28;20231;-63
2022/08/08 13:12:27;;;;;;;4.97;1.30;;;27.30;99.90;;;;;;5026434;28;20237;-63
2022/08/08 13:14:59;;;;;;;3.00;1.03;;;27.20;99.90;;;;;;5016874;28;20237;-63
2022/08/08 13:17:32;;;;;;;2.47;1.10;;;27.20;99.90;;;;;;5031793;28;20250;-63
2022/08/08 13:20:22;;;;;;;3.33;1.27;;;27.20;99.90;;;;;;5025698;28;20227;-63
2022/08/08 13:22:55;;;;;;;3.00;1.03;;;27.20;99.90;;;;;;5032893;28;20228;-63
2022/08/08 13:25:43;;;;;;;4.07;1.17;;;27.00;99.90;;;;;;5024546;28;20223;-64
2022/08/08 13:28:30;;;;;;;2.40;1.20;;;27.10;99.90;;;;;;5027298;28;20220;-64
2022/08/08 13:31:00;;;;;;;2.30;1.20;;;27.10;99.90;;;;;;5029454;28;20269;-63
2022/08/08 13:33:33;;;;;;;2.20;1.33;;;27.10;99.90;;;;;;5013047;28;20236;-64
2022/08/08 13:36:10;;;;;;;3.93;1.30;;;27.00;99.90;;;;;;5023390;28;20680;-64
2022/08/08 13:38:39;;;;;;;3.97;1.40;;;26.50;99.90;;;;;;5025579;28;20216;-64
2022/08/08 13:41:08;;;;;;;2.73;1.10;;;26.40;99.90;;;;;;5019408;28;20681;-64
2022/08/08 13:43:46;;;;;;;2.27;0.97;;;26.00;99.90;;;;;;5021268;28;20748;-64
2022/08/08 13:46:16;;;;;;;5.17;1.33;;;25.90;99.90;;;;;;5017594;28;20216;-64
2022/08/08 13:48:57;;;;;;;2.67;1.20;;;25.70;99.90;;;;;;5020023;28;20232;-64
2022/08/08 13:51:56;;;;;;;2.73;1.03;;;25.60;99.90;;;;;;5029212;28;20240;-64
2022/08/08 13:54:25;;;;;;;2.87;1.13;;;25.40;99.90;;;;;;5024712;28;20319;-64
2022/08/08 13:57:03;;;;;;;3.80;1.27;;;25.30;99.90;;;;;;5030573;28;20615;-64
2022/08/08 13:59:40;;;;;;;4.83;1.20;;;25.10;99.90;;;;;;5015982;28;20613;-64
2022/08/08 14:02:18;;;;;;;3.87;1.17;;;25.10;99.90;;;;;;5023655;28;20241;-64
2022/08/08 14:04:57;;;;;;;2.87;1.07;;;25.10;99.90;;;;;;5015433;28;20232;-64
2022/08/08 14:07:48;;;;;;;4.07;1.40;;;25.20;99.90;;;;;;5018982;28;20231;-64
2022/08/08 14:10:22;;;;;;;2.93;1.10;;;25.10;99.90;;;;;;5021513;28;20226;-64
2022/08/08 14:13:11;;;;;;;2.50;1.07;;;25.30;99.90;;;;;;5025133;28;20795;-64
2022/08/08 14:16:02;;;;;;;3.17;1.20;;;25.30;99.90;;;;;;5031213;28;20235;-64
2022/08/08 14:18:30;;;;;;;3.57;1.20;;;25.10;99.90;;;;;;5023189;28;20224;-64
2022/08/08 14:21:20;;;;;;;4.93;1.00;;;25.20;99.90;;;;;;5027354;28;20242;-64